createdAt,value
2019-03-31T00:00:35.720Z,42.20
2019-03-31T00:03:03.208Z,42.10
2019-03-31T00:05:30.555Z,38.73
2019-03-31T00:07:58.006Z,43.87
2019-03-31T00:10:25.439Z,41.37
2019-03-31T00:12:52.844Z,44.17
2019-03-31T00:15:20.254Z,45.10
2019-03-31T00:17:48.231Z,42.60
2019-03-31T00:20:15.649Z,46.43
2019-03-31T00:22:43.076Z,45.53
2019-03-31T00:25:10.485Z,44.33
2019-03-31T00:27:37.895Z,42.67
2019-03-31T00:30:05.343Z,42.83
2019-03-31T00:32:32.764Z,47.03
2019-03-31T00:35:00.340Z,43.20
2019-03-31T00:37:27.589Z,45.80
2019-03-31T00:39:55.033Z,47.93
2019-03-31T00:42:22.421Z,44.97
2019-03-31T00:44:49.901Z,46.07
2019-03-31T00:47:17.297Z,42.07
2019-03-31T00:49:44.725Z,43.30
2019-03-31T00:52:12.164Z,41.70
2019-03-31T00:54:39.556Z,43.13
2019-03-31T00:57:06.957Z,48.03
2019-03-31T00:59:34.445Z,47.20
2019-03-31T01:02:01.842Z,45.10
2019-03-31T01:04:29.243Z,49.00
2019-03-31T01:06:56.718Z,44.83
2019-03-31T01:09:24.085Z,48.20
2019-03-31T01:11:51.503Z,46.77
2019-03-31T01:14:18.921Z,50.20
2019-03-31T01:16:46.357Z,47.23
2019-03-31T01:19:13.783Z,47.73
2019-03-31T01:21:41.195Z,48.37
2019-03-31T01:24:08.672Z,47.60
2019-03-31T01:26:36.080Z,48.50
2019-03-31T01:29:03.512Z,50.17
2019-03-31T01:31:30.946Z,58.60
2019-03-31T01:33:58.352Z,59.43
2019-03-31T01:36:25.778Z,52.43
2019-03-31T01:38:53.182Z,59.90
2019-03-31T01:41:20.609Z,62.70
2019-03-31T01:43:48.011Z,59.67
2019-03-31T01:46:15.541Z,55.70
2019-03-31T01:48:42.953Z,52.70
2019-03-31T01:51:10.378Z,54.87
2019-03-31T01:53:37.778Z,57.00
2019-03-31T01:56:05.206Z,61.13
2019-03-31T01:58:32.639Z,65.97
2019-03-31T02:01:00.048Z,68.70
2019-03-31T02:03:27.476Z,69.63
2019-03-31T02:05:54.908Z,71.63
2019-03-31T02:08:22.348Z,72.30
2019-03-31T02:10:49.758Z,70.03
2019-03-31T02:13:17.160Z,69.27
2019-03-31T02:15:44.585Z,70.40
2019-03-31T02:18:11.998Z,69.20
2019-03-31T02:20:39.429Z,78.17
2019-03-31T02:23:06.819Z,82.53
2019-03-31T02:25:34.253Z,75.97
2019-03-31T02:28:01.653Z,81.77
2019-03-31T02:30:29.077Z,87.03
2019-03-31T02:32:56.485Z,91.30
2019-03-31T02:35:23.917Z,87.87
2019-03-31T02:37:51.322Z,84.97
2019-03-31T02:40:18.742Z,86.33
2019-03-31T02:42:46.179Z,85.43
2019-03-31T02:45:13.613Z,85.23
2019-03-31T02:47:41.005Z,86.07
2019-03-31T02:50:08.423Z,85.80
2019-03-31T02:52:35.847Z,84.53
2019-03-31T02:55:03.258Z,86.87
2019-03-31T02:57:30.676Z,84.53
2019-03-31T02:59:58.076Z,82.60
2019-03-31T03:02:40.581Z,78.17
2019-03-31T03:04:52.940Z,81.57
2019-03-31T03:07:20.384Z,95.07
2019-03-31T03:09:47.757Z,86.33
2019-03-31T03:12:15.176Z,81.40
2019-03-31T03:14:42.611Z,77.90
2019-03-31T03:17:10.017Z,83.63
2019-03-31T03:19:37.434Z,95.93
2019-03-31T03:22:04.829Z,99.10
2019-03-31T03:24:32.245Z,92.60
2019-03-31T03:26:59.708Z,96.43
2019-03-31T03:29:27.131Z,96.77
2019-03-31T03:31:54.537Z,104.37
2019-03-31T03:34:21.981Z,104.80
2019-03-31T03:36:49.372Z,104.53
2019-03-31T03:39:16.795Z,108.00
2019-03-31T03:41:44.220Z,109.47
2019-03-31T03:44:11.609Z,113.30
2019-03-31T03:46:39.025Z,106.47
2019-03-31T03:49:06.488Z,109.03
2019-03-31T03:51:33.875Z,108.70
2019-03-31T03:54:01.286Z,103.07
2019-03-31T03:56:29.637Z,108.13
2019-03-31T03:58:57.050Z,109.80
2019-03-31T04:01:24.446Z,118.57
2019-03-31T04:03:51.878Z,125.93
2019-03-31T04:06:19.294Z,111.70
2019-03-31T04:08:46.725Z,110.57
2019-03-31T04:11:14.174Z,115.73
2019-03-31T04:13:41.577Z,117.80
2019-03-31T04:16:08.991Z,109.30
2019-03-31T04:18:36.421Z,118.67
2019-03-31T04:21:03.831Z,115.00
2019-03-31T04:23:31.266Z,120.30
2019-03-31T04:25:58.681Z,114.40
2019-03-31T04:28:26.118Z,115.93
2019-03-31T04:30:53.540Z,117.57
2019-03-31T04:33:20.944Z,119.20
2019-03-31T04:35:48.398Z,119.53
2019-03-31T04:38:15.905Z,117.37
2019-03-31T04:40:43.224Z,116.93
2019-03-31T04:43:10.617Z,120.47
2019-03-31T04:45:38.032Z,125.47
2019-03-31T04:48:05.450Z,118.97
2019-03-31T04:50:32.865Z,120.40
2019-03-31T04:53:00.281Z,121.07
2019-03-31T04:55:27.728Z,110.07
2019-03-31T04:57:55.128Z,114.23
2019-03-31T05:00:22.548Z,117.90
2019-03-31T05:02:49.945Z,118.63
2019-03-31T05:05:17.374Z,112.30
2019-03-31T05:07:44.775Z,118.40
2019-03-31T05:10:12.211Z,117.07
2019-03-31T05:12:39.627Z,122.43
2019-03-31T05:15:07.057Z,120.33
2019-03-31T05:17:35.921Z,119.10
2019-03-31T05:20:01.909Z,122.70
2019-03-31T05:22:29.304Z,116.10
2019-03-31T05:24:56.787Z,116.33
2019-03-31T05:27:24.185Z,114.50
2019-03-31T05:29:51.614Z,112.07
2019-03-31T05:32:19.014Z,112.17
2019-03-31T05:34:46.445Z,109.87
2019-03-31T05:37:13.849Z,107.17
2019-03-31T05:39:41.249Z,120.17
2019-03-31T05:42:08.691Z,116.70
2019-03-31T05:44:36.097Z,110.77
2019-03-31T05:47:03.495Z,111.23
2019-03-31T05:49:30.927Z,109.10
2019-03-31T05:51:58.335Z,118.40
2019-03-31T05:54:25.770Z,112.57
2019-03-31T05:56:53.204Z,109.03
2019-03-31T05:59:20.628Z,116.50
2019-03-31T06:01:48.068Z,105.80
2019-03-31T06:04:15.478Z,100.80
2019-03-31T06:06:42.893Z,101.80
2019-03-31T06:09:10.314Z,102.73
2019-03-31T06:11:37.731Z,110.23
2019-03-31T06:14:05.158Z,111.50
2019-03-31T06:16:32.571Z,103.17
2019-03-31T06:19:19.876Z,98.80
2019-03-31T06:21:47.286Z,103.07
2019-03-31T06:24:14.724Z,102.53
2019-03-31T06:26:42.129Z,104.80
2019-03-31T06:29:09.568Z,101.83
2019-03-31T06:31:36.975Z,102.50
2019-03-31T06:34:04.406Z,117.60
2019-03-31T06:36:31.807Z,90.83
2019-03-31T06:38:59.242Z,95.90
2019-03-31T06:41:27.047Z,94.73
2019-03-31T06:43:54.480Z,93.93
2019-03-31T06:46:21.915Z,92.27
2019-03-31T06:48:49.323Z,98.40
2019-03-31T06:51:17.247Z,96.83
2019-03-31T06:53:44.190Z,91.27
2019-03-31T06:56:11.600Z,95.43
2019-03-31T06:58:39.030Z,93.57
2019-03-31T07:01:06.442Z,93.20
2019-03-31T07:03:33.892Z,93.97
2019-03-31T07:06:01.299Z,90.47
2019-03-31T07:08:28.736Z,96.93
2019-03-31T07:10:56.135Z,91.47
2019-03-31T07:13:23.585Z,103.27
2019-03-31T07:15:51.014Z,92.87
2019-03-31T07:18:18.418Z,100.67
2019-03-31T07:20:45.861Z,93.67
2019-03-31T07:23:13.273Z,94.40
2019-03-31T07:25:40.715Z,97.17
2019-03-31T07:28:08.123Z,105.77
2019-03-31T07:30:35.553Z,111.97
2019-03-31T07:33:02.974Z,100.20
2019-03-31T07:35:30.404Z,105.37
2019-03-31T07:37:57.814Z,103.63
2019-03-31T07:40:25.598Z,100.30
2019-03-31T07:42:52.657Z,104.13
2019-03-31T07:45:20.073Z,108.50
2019-03-31T07:47:47.512Z,105.33
2019-03-31T07:50:14.922Z,107.60
2019-03-31T07:52:42.360Z,110.63
2019-03-31T07:55:09.774Z,106.17
2019-03-31T07:57:37.242Z,107.73
2019-03-31T08:00:04.672Z,109.17
2019-03-31T08:02:32.061Z,106.23
2019-03-31T08:04:59.481Z,104.80
2019-03-31T08:07:26.903Z,107.93
2019-03-31T08:09:54.315Z,110.60
2019-03-31T08:12:21.764Z,105.87
2019-03-31T08:14:49.189Z,104.40
2019-03-31T08:17:16.604Z,103.17
2019-03-31T08:19:44.068Z,105.43
2019-03-31T08:22:11.472Z,102.27
2019-03-31T08:24:45.088Z,101.90
2019-03-31T08:27:15.474Z,103.53
2019-03-31T08:29:42.877Z,88.77
2019-03-31T08:32:10.309Z,93.33
2019-03-31T08:34:37.720Z,92.80
2019-03-31T08:37:05.133Z,82.77
2019-03-31T08:39:32.553Z,88.73
2019-03-31T08:41:59.972Z,87.03
2019-03-31T08:44:27.379Z,84.13
2019-03-31T08:46:54.815Z,86.40
2019-03-31T08:49:22.242Z,78.27
2019-03-31T08:51:49.674Z,82.27
2019-03-31T08:54:17.096Z,79.87
2019-03-31T08:56:44.496Z,79.83
2019-03-31T08:59:11.912Z,80.60
2019-03-31T09:01:39.322Z,74.67
2019-03-31T09:04:06.782Z,75.03
2019-03-31T09:06:34.187Z,68.63
2019-03-31T09:09:01.604Z,75.53
2019-03-31T09:11:29.045Z,70.20
2019-03-31T09:13:56.447Z,70.00
2019-03-31T09:16:23.883Z,68.50
2019-03-31T09:18:51.296Z,62.30
2019-03-31T09:21:18.697Z,62.77
2019-03-31T09:23:46.122Z,63.33
2019-03-31T09:26:13.533Z,61.57
2019-03-31T09:28:40.965Z,63.53
2019-03-31T09:31:08.357Z,61.90
2019-03-31T09:33:39.220Z,60.90
2019-03-31T09:36:15.611Z,62.97
2019-03-31T09:38:30.651Z,61.33
2019-03-31T09:40:58.080Z,56.37
2019-03-31T09:43:25.469Z,62.70
2019-03-31T09:45:52.910Z,58.63
2019-03-31T09:48:20.339Z,59.00
2019-03-31T09:50:47.785Z,56.50
2019-03-31T09:53:15.205Z,53.93
2019-03-31T09:55:42.631Z,59.00
2019-03-31T09:58:10.067Z,56.30
2019-03-31T10:00:43.275Z,57.60
2019-03-31T10:03:10.735Z,57.57
2019-03-31T10:05:38.122Z,54.50
2019-03-31T10:08:05.533Z,58.60
2019-03-31T10:10:32.960Z,54.13
2019-03-31T10:13:00.380Z,55.43
2019-03-31T10:15:27.834Z,53.13
2019-03-31T10:17:55.235Z,55.87
2019-03-31T10:20:22.653Z,56.50
2019-03-31T10:22:50.114Z,58.37
2019-03-31T10:25:17.512Z,51.50
2019-03-31T10:27:44.957Z,57.17
2019-03-31T10:30:12.372Z,56.13
2019-03-31T10:32:39.802Z,55.67
2019-03-31T10:35:07.212Z,57.87
2019-03-31T10:37:34.609Z,50.17
2019-03-31T10:40:02.044Z,53.80
2019-03-31T10:42:29.444Z,52.17
2019-03-31T10:44:56.880Z,46.90
2019-03-31T10:47:24.295Z,43.93
2019-03-31T10:49:51.726Z,48.70
2019-03-31T10:52:19.123Z,46.30
2019-03-31T10:54:46.552Z,44.53
2019-03-31T10:57:13.967Z,49.70
2019-03-31T10:59:41.391Z,42.93
2019-03-31T11:02:08.811Z,44.53
2019-03-31T11:04:36.247Z,46.77
2019-03-31T11:07:03.789Z,46.10
2019-03-31T11:09:34.234Z,40.43
2019-03-31T11:11:58.500Z,43.97
2019-03-31T11:14:25.930Z,44.70
2019-03-31T11:16:53.377Z,44.57
2019-03-31T11:19:20.782Z,45.30
2019-03-31T11:21:54.004Z,47.87
2019-03-31T11:24:21.409Z,46.93
2019-03-31T11:26:48.837Z,45.57
2019-03-31T11:29:16.269Z,45.87
2019-03-31T11:31:43.705Z,44.10
2019-03-31T11:34:11.149Z,46.60
2019-03-31T11:36:38.553Z,48.23
2019-03-31T11:39:05.992Z,43.00
2019-03-31T11:41:33.383Z,47.37
2019-03-31T11:44:00.814Z,38.83
2019-03-31T11:46:28.205Z,45.20
2019-03-31T11:48:55.637Z,41.67
2019-03-31T11:51:23.061Z,40.63
2019-03-31T11:53:50.456Z,44.73
2019-03-31T11:56:17.893Z,43.33
2019-03-31T11:58:45.334Z,41.50
2019-03-31T12:01:12.750Z,42.23
2019-03-31T12:03:40.162Z,42.17
2019-03-31T12:06:11.054Z,43.90
2019-03-31T12:08:34.988Z,45.10
2019-03-31T12:11:02.401Z,46.10
2019-03-31T12:13:29.815Z,43.97
2019-03-31T12:15:57.256Z,44.60
2019-03-31T12:18:24.678Z,47.27
2019-03-31T12:20:52.115Z,40.27
2019-03-31T12:23:19.540Z,40.37
2019-03-31T12:25:46.962Z,37.50
2019-03-31T12:28:14.406Z,44.13
2019-03-31T12:30:42.145Z,36.33
2019-03-31T12:33:09.580Z,36.00
2019-03-31T12:35:36.986Z,38.73
2019-03-31T12:38:04.419Z,38.73
2019-03-31T12:40:34.483Z,37.30
2019-03-31T12:43:01.910Z,37.87
2019-03-31T12:45:29.320Z,36.33
2019-03-31T12:47:56.781Z,41.23
2019-03-31T12:50:24.191Z,39.43
2019-03-31T12:52:51.645Z,38.17
2019-03-31T12:55:19.044Z,44.13
2019-03-31T12:57:46.455Z,43.27
2019-03-31T13:00:13.888Z,33.07
2019-03-31T13:02:41.295Z,31.07
2019-03-31T13:05:08.716Z,33.67
2019-03-31T13:07:36.128Z,33.67
2019-03-31T13:10:03.557Z,33.47
2019-03-31T13:12:30.962Z,34.20
2019-03-31T13:14:58.395Z,34.97
2019-03-31T13:17:25.821Z,32.53
2019-03-31T13:19:53.337Z,34.03
2019-03-31T13:22:20.664Z,34.63
2019-03-31T13:24:48.080Z,28.50
2019-03-31T13:27:15.506Z,30.07
2019-03-31T13:29:42.905Z,34.97
2019-03-31T13:32:10.328Z,30.57
2019-03-31T13:34:37.747Z,32.13
2019-03-31T13:37:24.776Z,33.27
2019-03-31T13:39:52.226Z,28.77
2019-03-31T13:42:19.629Z,28.50
2019-03-31T13:44:47.043Z,27.93
2019-03-31T13:47:14.454Z,33.27
2019-03-31T13:49:41.887Z,29.33
2019-03-31T13:52:09.302Z,30.57
2019-03-31T13:54:36.745Z,28.33
2019-03-31T13:57:04.163Z,32.00
2019-03-31T13:59:31.582Z,24.90
2019-03-31T14:02:00.376Z,24.60
2019-03-31T14:04:26.432Z,23.07
2019-03-31T14:06:53.829Z,28.67
2019-03-31T14:09:21.232Z,27.00
2019-03-31T14:11:48.763Z,22.70
2019-03-31T14:14:16.053Z,25.67
2019-03-31T14:16:43.495Z,32.67
2019-03-31T14:19:13.022Z,31.23
2019-03-31T14:21:40.080Z,29.07
2019-03-31T14:24:05.826Z,28.67
2019-03-31T14:26:33.252Z,29.67
2019-03-31T14:29:00.686Z,27.10
2019-03-31T14:31:28.091Z,24.47
2019-03-31T14:33:55.508Z,24.70
2019-03-31T14:36:22.933Z,25.97
2019-03-31T14:38:50.341Z,23.63
2019-03-31T14:41:17.766Z,26.03
2019-03-31T14:43:45.226Z,24.50
2019-03-31T14:46:12.637Z,26.67
2019-03-31T14:48:40.042Z,30.17
2019-03-31T14:51:07.477Z,24.80
2019-03-31T14:53:34.898Z,27.03
2019-03-31T14:56:02.330Z,25.77
2019-03-31T14:58:29.746Z,26.30
2019-03-31T15:00:57.177Z,28.77
2019-03-31T15:03:24.585Z,26.73
2019-03-31T15:05:51.997Z,28.87
2019-03-31T15:08:19.444Z,26.57
2019-03-31T15:10:46.856Z,27.73
2019-03-31T15:13:14.282Z,26.63
2019-03-31T15:15:41.717Z,26.23
2019-03-31T15:18:09.147Z,24.87
2019-03-31T15:20:36.547Z,27.50
2019-03-31T15:23:04.016Z,24.43
2019-03-31T15:25:31.419Z,23.10
2019-03-31T15:27:58.827Z,23.10
2019-03-31T15:30:26.263Z,21.87
2019-03-31T15:32:53.685Z,32.43
2019-03-31T15:35:21.111Z,26.47
2019-03-31T15:37:48.538Z,24.47
2019-03-31T15:40:15.970Z,24.63
2019-03-31T15:42:43.380Z,25.90
2019-03-31T15:45:10.812Z,20.30
2019-03-31T15:47:38.220Z,24.30
2019-03-31T15:50:05.624Z,19.80
2019-03-31T15:52:33.054Z,27.20
2019-03-31T15:55:00.481Z,22.00
2019-03-31T15:57:27.901Z,22.53
2019-03-31T15:59:55.335Z,19.73
2019-03-31T16:02:22.743Z,20.70
2019-03-31T16:04:50.186Z,23.17
2019-03-31T16:07:17.611Z,21.37
2019-03-31T16:09:45.029Z,21.83
2019-03-31T16:12:12.462Z,16.40
2019-03-31T16:14:39.868Z,16.67
2019-03-31T16:17:07.315Z,17.30
2019-03-31T16:19:34.716Z,18.73
2019-03-31T16:22:02.139Z,18.63
2019-03-31T16:24:32.121Z,16.33
2019-03-31T16:26:59.521Z,15.23
2019-03-31T16:29:26.948Z,16.07
2019-03-31T16:31:54.386Z,15.27
2019-03-31T16:34:21.796Z,16.37
2019-03-31T16:36:49.235Z,14.63
2019-03-31T16:39:16.663Z,16.63
2019-03-31T16:41:44.073Z,16.23
2019-03-31T16:44:11.498Z,15.67
2019-03-31T16:46:40.026Z,14.40
2019-03-31T16:49:06.413Z,13.33
2019-03-31T16:51:33.774Z,14.90
2019-03-31T16:54:01.187Z,18.07
2019-03-31T16:56:28.592Z,16.80
2019-03-31T16:58:56.009Z,13.30
2019-03-31T17:01:23.442Z,13.47
2019-03-31T17:03:50.841Z,10.83
2019-03-31T17:06:18.265Z,14.37
2019-03-31T17:08:45.660Z,16.13
2019-03-31T17:11:13.099Z,18.37
2019-03-31T17:13:40.519Z,14.87
2019-03-31T17:16:07.942Z,12.50
2019-03-31T17:18:35.414Z,13.87
2019-03-31T17:21:02.815Z,12.10
2019-03-31T17:23:30.225Z,13.83
2019-03-31T17:25:57.666Z,12.10
2019-03-31T17:28:25.132Z,13.20
2019-03-31T17:30:52.517Z,14.80
2019-03-31T17:33:19.946Z,10.03
2019-03-31T17:35:47.392Z,16.43
2019-03-31T17:38:14.824Z,13.60
2019-03-31T17:40:42.258Z,13.57
2019-03-31T17:43:09.655Z,11.30
2019-03-31T17:45:37.133Z,15.27
2019-03-31T17:48:04.545Z,17.47
2019-03-31T17:50:32.031Z,14.33
2019-03-31T17:52:59.396Z,11.27
2019-03-31T17:55:26.820Z,12.13
2019-03-31T17:57:54.286Z,14.23
2019-03-31T18:00:21.706Z,11.27
2019-03-31T18:02:49.116Z,10.57
2019-03-31T18:05:16.552Z,11.70
2019-03-31T18:07:43.970Z,11.30
2019-03-31T18:10:20.639Z,11.10
2019-03-31T18:12:38.952Z,12.43
2019-03-31T18:15:06.360Z,10.40
2019-03-31T18:17:33.795Z,10.80
2019-03-31T18:20:01.215Z,10.27
2019-03-31T18:22:28.651Z,8.57
2019-03-31T18:24:56.137Z,9.40
2019-03-31T18:27:23.494Z,10.60
2019-03-31T18:29:50.896Z,13.03
2019-03-31T18:32:18.594Z,11.13
2019-03-31T18:34:46.025Z,11.00
2019-03-31T18:37:13.446Z,9.67
2019-03-31T18:39:40.920Z,11.17
2019-03-31T18:42:08.450Z,11.60
2019-03-31T18:44:35.859Z,8.63
2019-03-31T18:47:03.278Z,11.70
2019-03-31T18:49:30.697Z,9.87
2019-03-31T18:51:58.164Z,12.17
2019-03-31T18:54:28.614Z,12.00
2019-03-31T18:56:56.015Z,11.93
2019-03-31T18:59:38.792Z,10.63
2019-03-31T19:02:08.855Z,14.63
2019-03-31T19:04:54.597Z,9.40
2019-03-31T19:07:24.828Z,10.07
2019-03-31T19:10:23.683Z,12.27
2019-03-31T19:12:46.841Z,10.70
2019-03-31T19:15:29.630Z,8.83
2019-03-31T19:18:15.511Z,9.33
2019-03-31T19:21:10.560Z,11.37
2019-03-31T19:23:25.527Z,12.50
2019-03-31T19:25:52.967Z,11.47
2019-03-31T19:28:25.919Z,12.33
2019-03-31T19:31:11.633Z,14.60
2019-03-31T19:33:45.108Z,12.40
2019-03-31T19:36:30.560Z,12.83
2019-03-31T19:39:06.966Z,13.37
2019-03-31T19:41:34.449Z,12.17
2019-03-31T19:44:12.245Z,10.87
2019-03-31T19:46:47.201Z,13.80
2019-03-31T19:49:20.716Z,14.07
2019-03-31T19:51:53.812Z,13.80
2019-03-31T19:54:21.267Z,12.83
2019-03-31T19:57:00.469Z,11.53
2019-03-31T19:59:27.868Z,13.90
2019-03-31T20:01:55.299Z,13.50
2019-03-31T20:04:22.734Z,12.53
2019-03-31T20:07:08.291Z,15.03
2019-03-31T20:09:44.893Z,13.50
2019-03-31T20:12:14.942Z,13.67
2019-03-31T20:14:51.170Z,12.50
2019-03-31T20:17:18.673Z,12.43
2019-03-31T20:20:04.482Z,16.63
2019-03-31T20:22:34.411Z,14.33
2019-03-31T20:25:07.325Z,16.03
2019-03-31T20:27:46.503Z,13.67
2019-03-31T20:30:13.900Z,14.00
2019-03-31T20:32:44.229Z,17.77
2019-03-31T20:35:14.716Z,12.40
2019-03-31T20:38:00.845Z,15.63
2019-03-31T20:40:28.231Z,13.30
2019-03-31T20:43:07.661Z,16.63
2019-03-31T20:45:35.073Z,14.43
2019-03-31T20:48:02.591Z,16.87
2019-03-31T20:50:30.025Z,16.47
2019-03-31T20:52:57.465Z,15.50
2019-03-31T20:55:24.899Z,13.23
2019-03-31T20:57:52.302Z,17.27
2019-03-31T21:00:19.766Z,13.70
2019-03-31T21:02:47.213Z,13.50
2019-03-31T21:05:14.624Z,14.80
2019-03-31T21:07:42.020Z,15.10
2019-03-31T21:10:09.480Z,13.27
2019-03-31T21:12:36.907Z,11.30
2019-03-31T21:15:04.318Z,16.60
2019-03-31T21:17:31.769Z,25.43
2019-03-31T21:19:59.201Z,16.07
2019-03-31T21:22:26.689Z,15.07
2019-03-31T21:24:54.141Z,17.63
2019-03-31T21:27:21.567Z,15.70
2019-03-31T21:29:48.989Z,14.20
2019-03-31T21:32:16.427Z,14.77
2019-03-31T21:34:43.864Z,16.13
2019-03-31T21:37:11.310Z,15.87
2019-03-31T21:39:38.712Z,16.57
2019-03-31T21:42:06.130Z,15.13
2019-03-31T21:44:33.562Z,13.83
2019-03-31T21:47:00.996Z,15.20
2019-03-31T21:49:28.393Z,12.80
2019-03-31T21:51:55.823Z,14.80
2019-03-31T21:54:23.229Z,13.23
2019-03-31T21:56:50.653Z,18.77
2019-03-31T21:59:18.057Z,15.63
2019-03-31T22:01:45.466Z,18.33
2019-03-31T22:04:12.882Z,16.93
2019-03-31T22:06:40.286Z,14.27
2019-03-31T22:09:07.749Z,13.03
2019-03-31T22:11:35.142Z,17.53
2019-03-31T22:14:02.574Z,18.57
2019-03-31T22:16:29.958Z,15.70
2019-03-31T22:18:57.386Z,14.47
2019-03-31T22:21:24.840Z,15.57
2019-03-31T22:23:58.064Z,14.60
2019-03-31T22:26:20.108Z,16.40
2019-03-31T22:28:47.143Z,13.50
2019-03-31T22:31:14.475Z,15.13
2019-03-31T22:33:42.195Z,16.77
2019-03-31T22:36:21.904Z,13.80
2019-03-31T22:38:49.332Z,14.43
2019-03-31T22:41:16.744Z,15.33
2019-03-31T22:43:44.177Z,17.90
2019-03-31T22:46:11.592Z,11.90
2019-03-31T22:48:39.044Z,16.07
2019-03-31T22:51:06.490Z,14.97
2019-03-31T22:53:33.854Z,13.67
2019-03-31T22:56:01.294Z,13.83
2019-03-31T22:58:28.723Z,14.90
2019-03-31T23:00:56.147Z,17.57
2019-03-31T23:03:23.579Z,15.33
2019-03-31T23:05:50.982Z,11.70
2019-03-31T23:08:18.393Z,18.37
2019-03-31T23:10:45.813Z,12.13
2019-03-31T23:13:13.223Z,12.80
2019-03-31T23:15:40.651Z,17.90
2019-03-31T23:18:08.061Z,13.13
2019-03-31T23:20:35.495Z,13.20
2019-03-31T23:23:02.913Z,13.87
2019-03-31T23:25:30.325Z,15.00
2019-03-31T23:27:57.757Z,14.67
2019-03-31T23:30:25.186Z,14.10
2019-03-31T23:32:52.613Z,15.77
2019-03-31T23:35:20.005Z,17.63
2019-03-31T23:37:47.428Z,14.43
2019-03-31T23:40:14.851Z,11.23
2019-03-31T23:42:42.272Z,16.37
2019-03-31T23:45:09.697Z,11.37
2019-03-31T23:47:37.103Z,15.00
2019-03-31T23:50:04.529Z,18.87
2019-03-31T23:52:31.945Z,13.93
2019-03-31T23:54:59.360Z,15.03
2019-03-31T23:57:35.753Z,14.20
